Elisabeth — LHEA — position and weather

sailwx.info

Track history (hours):
 
Tides and Currents Weather Stations Pressure Air Temp Water Temp Dewpoint Dewpoint Depression Visibility Wind Speed Wind Dir Waves Ship Positions

Elisabeth

Last reported at 2015-Jun-29 20:31 UTC. Time now 2015-Jul-07 13:12 UTC.
Position N 59°24' E 005°08'.

Length 50 m.

Type: Fishing. MMSI: 259166000.

Date/timePositionNaut miles runAvg speedWind from/ knotsBaromVisibWave heightAir tempDewpointWater temp
2015-Jun-29 20:31N 59°24' E 005°08'1111.6
2015-Jun-29 19:33N 59°13' E 005°09'1211.7
2015-Jun-29 18:33N 59°01' E 005°14'1212.4
2015-Jun-29 17:33N 58°50' E 005°23'1912.8
2015-Jun-29 16:03N 58°33' E 005°39'5 0.2
2015-Jun-28 07:23N 58°30' E 005°48'9 9.5
2015-Jun-28 06:29N 58°24' E 005°59'3 3.0
2015-Jun-28 05:33N 58°27' E 005°59'0 0.0
2015-Jun-28 04:33N 58°27' E 005°59'4 3.0
2015-Jun-28 03:20N 58°24' E 005°55'8 9.6
2015-Jun-28 02:32N 58°27' E 005°41'4 0.1
2015-Jun-26 15:29N 58°30' E 005°43'2 0.2
2015-Jun-26 05:26N 58°30' E 005°47'8 9.8
2015-Jun-26 04:33N 58°24' E 005°58'3 2.9
2015-Jun-26 03:33N 58°27' E 005°59'0 0.0
2015-Jun-26 02:33N 58°27' E 005°59'8 7.8
2015-Jun-26 01:31N 58°26' E 005°44'  
2015-Jun-22 19:29N 58°27' E 005°59'0 0.0
2015-Jun-22 18:33N 58°27' E 005°59'0 0.0
2015-Jun-22 17:33N 58°27' E 005°59'0 0.0
2015-Jun-22 16:33N 58°27' E 005°59'0 0.0
2015-Jun-22 15:32N 58°27' E 005°59'0 0.0
2015-Jun-22 14:33N 58°27' E 005°59'0 0.0
2015-Jun-22 13:31N 58°27' E 005°59'0 0.0
2015-Jun-22 12:28N 58°27' E 005°59'0 0.0
2015-Jun-22 11:31N 58°27' E 005°59'0 0.0
2015-Jun-22 10:32N 58°27' E 005°59'0 0.0
2015-Jun-22 09:33N 58°27' E 005°59'0 0.2
2015-Jun-22 08:33N 58°27' E 005°59'0 0.0
2015-Jun-22 07:33N 58°27' E 005°59'0 0.3
2015-Jun-22 06:33N 58°27' E 005°59'2 2.0
2015-Jun-22 05:32N 58°25' E 005°60'2712.1
2015-Jun-22 03:17N 58°35' E 005°11'  
Track history (hours):
 
Tides and Currents Weather Stations Pressure Air Temp Water Temp Dewpoint Dewpoint Depression Visibility Wind Speed Wind Dir Waves Ship Positions

Elisabeth

Last reported at 2015-Jun-29 20:31 UTC. Time now 2015-Jul-07 13:12 UTC.
Position N 59°24' E 005°08'.

Length 50 m.

Type: Fishing. MMSI: 259166000.

Date/timePositionNaut miles runAvg speedWind from/ knotsBaromVisibWave heightAir tempDewpointWater temp
2015-Jun-29 20:31N 59°24' E 005°08'1111.6
2015-Jun-29 19:33N 59°13' E 005°09'1211.7
2015-Jun-29 18:33N 59°01' E 005°14'1212.4
2015-Jun-29 17:33N 58°50' E 005°23'1912.8
2015-Jun-29 16:03N 58°33' E 005°39'5 0.2
2015-Jun-28 07:23N 58°30' E 005°48'9 9.5
2015-Jun-28 06:29N 58°24' E 005°59'3 3.0
2015-Jun-28 05:33N 58°27' E 005°59'0 0.0
2015-Jun-28 04:33N 58°27' E 005°59'4 3.0
2015-Jun-28 03:20N 58°24' E 005°55'8 9.6
2015-Jun-28 02:32N 58°27' E 005°41'4 0.1
2015-Jun-26 15:29N 58°30' E 005°43'2 0.2
2015-Jun-26 05:26N 58°30' E 005°47'8 9.8
2015-Jun-26 04:33N 58°24' E 005°58'3 2.9
2015-Jun-26 03:33N 58°27' E 005°59'0 0.0
2015-Jun-26 02:33N 58°27' E 005°59'8 7.8
2015-Jun-26 01:31N 58°26' E 005°44'  
2015-Jun-22 19:29N 58°27' E 005°59'0 0.0
2015-Jun-22 18:33N 58°27' E 005°59'0 0.0
2015-Jun-22 17:33N 58°27' E 005°59'0 0.0
2015-Jun-22 16:33N 58°27' E 005°59'0 0.0
2015-Jun-22 15:32N 58°27' E 005°59'0 0.0
2015-Jun-22 14:33N 58°27' E 005°59'0 0.0
2015-Jun-22 13:31N 58°27' E 005°59'0 0.0
2015-Jun-22 12:28N 58°27' E 005°59'0 0.0
2015-Jun-22 11:31N 58°27' E 005°59'0 0.0
2015-Jun-22 10:32N 58°27' E 005°59'0 0.0
2015-Jun-22 09:33N 58°27' E 005°59'0 0.2
2015-Jun-22 08:33N 58°27' E 005°59'0 0.0
2015-Jun-22 07:33N 58°27' E 005°59'0 0.3
2015-Jun-22 06:33N 58°27' E 005°59'2 2.0
2015-Jun-22 05:32N 58°25' E 005°60'2712.1
2015-Jun-22 03:17N 58°35' E 005°11'  

Dump ship's entire track history